AZU2476 SBKP-SBPS
Flight info
| Callsign | AZU2476 |
|---|---|
| Flight time | 1h 55m |
| Altitude | 39000 |
| Route | KONVI UZ23 KIBAP DCT NITLU UZ16 OSUNO |
| Aircraft | A20N/M-SDE2E3FGHIRWXY/LB1 |
Departure
| Time | 2026-04-28 17:30 |
|---|---|
| Airport | Viracopos International Airport (SBKP) |
Arrival
| Time | 2026-04-28 19:26 |
|---|---|
| Airport | Porto Seguro International Airport (SBPS) |
| Time | Latitude | Longitude | Altitude | Speed | Heading |
|---|---|---|---|---|---|
| 2026-04-28 16:41 | -23.00546 | -47.14867 | 2157 ft | 0 kts | 39° |
| 2026-04-28 17:10 | -23.00558 | -47.14878 | 2150 ft | 4 kts | 39° |
| 2026-04-28 17:10 | -23.00579 | -47.14896 | 2154 ft | 4 kts | 38° |
| 2026-04-28 17:11 | -23.00601 | -47.14914 | 2152 ft | 4 kts | 38° |
| 2026-04-28 17:11 | -23.00605 | -47.14917 | 2151 ft | 1 kts | 38° |
| 2026-04-28 17:16 | -23.00589 | -47.14913 | 2149 ft | 3 kts | 0° |
| 2026-04-28 17:16 | -23.00565 | -47.14933 | 2153 ft | 7 kts | 313° |
| 2026-04-28 17:16 | -23.00524 | -47.14987 | 2150 ft | 11 kts | 309° |
| 2026-04-28 17:17 | -23.00473 | -47.15058 | 2154 ft | 12 kts | 307° |
| 2026-04-28 17:17 | -23.00419 | -47.15136 | 2155 ft | 13 kts | 307° |
| 2026-04-28 17:17 | -23.00353 | -47.15153 | 2151 ft | 10 kts | 40° |
| 2026-04-28 17:17 | -23.00304 | -47.15108 | 2150 ft | 8 kts | 37° |
| 2026-04-28 17:18 | -23.00261 | -47.15072 | 2153 ft | 7 kts | 37° |
| 2026-04-28 17:18 | -23.00213 | -47.15032 | 2153 ft | 11 kts | 38° |
| 2026-04-28 17:18 | -23.00152 | -47.14979 | 2154 ft | 12 kts | 39° |
| 2026-04-28 17:18 | -23.00084 | -47.14922 | 2156 ft | 13 kts | 38° |
| 2026-04-28 17:19 | -23.00017 | -47.14852 | 2151 ft | 14 kts | 64° |
| 2026-04-28 17:19 | -23.00028 | -47.14754 | 2152 ft | 15 kts | 126° |
| 2026-04-28 17:19 | -23.00094 | -47.14670 | 2157 ft | 14 kts | 129° |
| 2026-04-28 17:19 | -23.00151 | -47.14592 | 2149 ft | 14 kts | 128° |
| 2026-04-28 17:20 | -23.00221 | -47.14498 | 2151 ft | 17 kts | 124° |
| 2026-04-28 17:20 | -23.00267 | -47.14426 | 2152 ft | 18 kts | 128° |
| 2026-04-28 17:20 | -23.00371 | -47.14285 | 2150 ft | 18 kts | 127° |
| 2026-04-28 17:20 | -23.00447 | -47.14177 | 2151 ft | 18 kts | 127° |
| 2026-04-28 17:21 | -23.00526 | -47.14067 | 2154 ft | 19 kts | 128° |
| 2026-04-28 17:21 | -23.00605 | -47.13956 | 2152 ft | 19 kts | 128° |
| 2026-04-28 17:21 | -23.00659 | -47.13882 | 2154 ft | 19 kts | 127° |
| 2026-04-28 17:22 | -23.00813 | -47.13665 | 2153 ft | 16 kts | 128° |
| 2026-04-28 17:22 | -23.00901 | -47.13543 | 2153 ft | 14 kts | 128° |
| 2026-04-28 17:22 | -23.00939 | -47.13490 | 2150 ft | 13 kts | 128° |
| 2026-04-28 17:23 | -23.01032 | -47.13362 | 2152 ft | 10 kts | 127° |
| 2026-04-28 17:23 | -23.01088 | -47.13283 | 2155 ft | 10 kts | 127° |
| 2026-04-28 17:23 | -23.01119 | -47.13238 | 2150 ft | 12 kts | 127° |
| 2026-04-28 17:23 | -23.01191 | -47.13134 | 2151 ft | 14 kts | 127° |
| 2026-04-28 17:24 | -23.01255 | -47.13045 | 2152 ft | 15 kts | 131° |
| 2026-04-28 17:24 | -23.01303 | -47.12983 | 2156 ft | 16 kts | 127° |
| 2026-04-28 17:24 | -23.01370 | -47.12889 | 2155 ft | 16 kts | 128° |
| 2026-04-28 17:24 | -23.01440 | -47.12790 | 2155 ft | 17 kts | 126° |
| 2026-04-28 17:25 | -23.01513 | -47.12689 | 2153 ft | 16 kts | 127° |
| 2026-04-28 17:25 | -23.01634 | -47.12518 | 2156 ft | 11 kts | 128° |
| 2026-04-28 17:25 | -23.01686 | -47.12447 | 2151 ft | 13 kts | 128° |
| 2026-04-28 17:26 | -23.01743 | -47.12369 | 2152 ft | 12 kts | 128° |
| 2026-04-28 17:26 | -23.01741 | -47.12303 | 2153 ft | 10 kts | 43° |
| 2026-04-28 17:26 | -23.01710 | -47.12276 | 2153 ft | 1 kts | 38° |
| 2026-04-28 17:26 | -23.01709 | -47.12275 | 2153 ft | 0 kts | 38° |
| 2026-04-28 17:28 | -23.01697 | -47.12265 | 2157 ft | 3 kts | 38° |
| 2026-04-28 17:29 | -23.01672 | -47.12244 | 2155 ft | 5 kts | 38° |
| 2026-04-28 17:29 | -23.01636 | -47.12218 | 2153 ft | 7 kts | 18° |
| 2026-04-28 17:29 | -23.01612 | -47.12232 | 2152 ft | 0 kts | 309° |
| 2026-04-28 17:30 | -23.01246 | -47.12746 | 2150 ft | 106 kts | 307° |
| 2026-04-28 17:30 | -23.00011 | -47.14486 | 2647 ft | 159 kts | 305° |
| 2026-04-28 17:30 | -22.99350 | -47.15442 | 3262 ft | 161 kts | 305° |
| 2026-04-28 17:31 | -22.98674 | -47.16412 | 3894 ft | 160 kts | 305° |
| 2026-04-28 17:31 | -22.97124 | -47.18469 | 4683 ft | 197 kts | 309° |
| 2026-04-28 17:32 | -22.94489 | -47.19875 | 5487 ft | 246 kts | 5° |
| 2026-04-28 17:32 | -22.92820 | -47.19261 | 5974 ft | 267 kts | 34° |
| 2026-04-28 17:32 | -22.91526 | -47.17757 | 6598 ft | 280 kts | 61° |
| 2026-04-28 17:32 | -22.90933 | -47.15759 | 6874 ft | 281 kts | 84° |
| 2026-04-28 17:33 | -22.90657 | -47.13657 | 6946 ft | 283 kts | 77° |
| 2026-04-28 17:33 | -22.90080 | -47.11622 | 6955 ft | 282 kts | 70° |
| 2026-04-28 17:33 | -22.89357 | -47.09652 | 6951 ft | 281 kts | 66° |
| 2026-04-28 17:33 | -22.88817 | -47.08374 | 6950 ft | 282 kts | 65° |
| 2026-04-28 17:34 | -22.87639 | -47.05832 | 6950 ft | 281 kts | 63° |
| 2026-04-28 17:34 | -22.86723 | -47.03951 | 6950 ft | 282 kts | 62° |
| 2026-04-28 17:34 | -22.85806 | -47.02084 | 6954 ft | 282 kts | 62° |
| 2026-04-28 17:34 | -22.84880 | -47.00200 | 7091 ft | 285 kts | 62° |
| 2026-04-28 17:35 | -22.83945 | -46.98289 | 7747 ft | 287 kts | 62° |
| 2026-04-28 17:35 | -22.83019 | -46.96387 | 8772 ft | 287 kts | 62° |
| 2026-04-28 17:35 | -22.82079 | -46.94459 | 9679 ft | 291 kts | 62° |
| 2026-04-28 17:35 | -22.81152 | -46.92563 | 10435 ft | 300 kts | 62° |
| 2026-04-28 17:36 | -22.80113 | -46.90434 | 10782 ft | 324 kts | 62° |
| 2026-04-28 17:36 | -22.79021 | -46.88198 | 11147 ft | 343 kts | 62° |
| 2026-04-28 17:36 | -22.77895 | -46.85891 | 11923 ft | 348 kts | 62° |
| 2026-04-28 17:36 | -22.76755 | -46.83560 | 12721 ft | 352 kts | 62° |
| 2026-04-28 17:37 | -22.75601 | -46.81200 | 13502 ft | 356 kts | 62° |
| 2026-04-28 17:37 | -22.74394 | -46.78845 | 14253 ft | 361 kts | 57° |
| 2026-04-28 17:37 | -22.72896 | -46.76646 | 14982 ft | 365 kts | 49° |
| 2026-04-28 17:37 | -22.71126 | -46.74657 | 15695 ft | 369 kts | 45° |
| 2026-04-28 17:38 | -22.69413 | -46.72582 | 16371 ft | 372 kts | 56° |
| 2026-04-28 17:38 | -22.68324 | -46.70032 | 17029 ft | 376 kts | 75° |
| 2026-04-28 17:38 | -22.68026 | -46.67228 | 17655 ft | 379 kts | 90° |
| 2026-04-28 17:38 | -22.68060 | -46.64351 | 18299 ft | 383 kts | 91° |
| 2026-04-28 17:39 | -22.68105 | -46.61457 | 18928 ft | 386 kts | 91° |
| 2026-04-28 17:39 | -22.68146 | -46.58547 | 19533 ft | 390 kts | 91° |
| 2026-04-28 17:39 | -22.68209 | -46.52611 | 20711 ft | 397 kts | 91° |
| 2026-04-28 17:40 | -22.68235 | -46.49623 | 21280 ft | 400 kts | 91° |
| 2026-04-28 17:40 | -22.68259 | -46.46586 | 21834 ft | 404 kts | 91° |
| 2026-04-28 17:40 | -22.68284 | -46.43535 | 22374 ft | 407 kts | 91° |
| 2026-04-28 17:40 | -22.68307 | -46.40449 | 22900 ft | 411 kts | 90° |
| 2026-04-28 17:41 | -22.68331 | -46.37348 | 23418 ft | 414 kts | 91° |
| 2026-04-28 17:41 | -22.68354 | -46.34262 | 23916 ft | 417 kts | 91° |
| 2026-04-28 17:41 | -22.68378 | -46.31107 | 24408 ft | 420 kts | 90° |
| 2026-04-28 17:41 | -22.68401 | -46.27934 | 24883 ft | 423 kts | 90° |
| 2026-04-28 17:42 | -22.68423 | -46.24737 | 25340 ft | 426 kts | 90° |
| 2026-04-28 17:42 | -22.68376 | -46.22566 | 25631 ft | 429 kts | 84° |
| 2026-04-28 17:42 | -22.67399 | -46.18427 | 26190 ft | 433 kts | 66° |
| 2026-04-28 17:42 | -22.65883 | -46.15608 | 26582 ft | 436 kts | 52° |
| 2026-04-28 17:43 | -22.63791 | -46.13230 | 26977 ft | 438 kts | 40° |
| 2026-04-28 17:43 | -22.61645 | -46.11336 | 27328 ft | 441 kts | 38° |
| 2026-04-28 17:43 | -22.59231 | -46.09291 | 27705 ft | 443 kts | 38° |
| 2026-04-28 17:43 | -22.56797 | -46.07221 | 28071 ft | 446 kts | 38° |
| 2026-04-28 17:44 | -22.54375 | -46.05129 | 28419 ft | 448 kts | 39° |
| 2026-04-28 17:44 | -22.51938 | -46.02998 | 28758 ft | 451 kts | 39° |
| 2026-04-28 17:44 | -22.49499 | -46.00854 | 29086 ft | 453 kts | 39° |
| 2026-04-28 17:44 | -22.47049 | -45.98694 | 29398 ft | 455 kts | 39° |
| 2026-04-28 17:45 | -22.44587 | -45.96523 | 29709 ft | 457 kts | 39° |
| 2026-04-28 17:45 | -22.42119 | -45.94348 | 30023 ft | 460 kts | 39° |
| 2026-04-28 17:45 | -22.39634 | -45.92159 | 30321 ft | 462 kts | 39° |
| 2026-04-28 17:45 | -22.37136 | -45.89961 | 30605 ft | 464 kts | 39° |
| 2026-04-28 17:46 | -22.34640 | -45.87765 | 30920 ft | 466 kts | 39° |
| 2026-04-28 17:46 | -22.32120 | -45.85550 | 31245 ft | 467 kts | 39° |
| 2026-04-28 17:46 | -22.29590 | -45.83327 | 31625 ft | 467 kts | 39° |
| 2026-04-28 17:46 | -22.27076 | -45.81122 | 32014 ft | 466 kts | 39° |
| 2026-04-28 17:47 | -22.24552 | -45.78933 | 32390 ft | 465 kts | 38° |
| 2026-04-28 17:47 | -22.22023 | -45.76752 | 32755 ft | 464 kts | 38° |
| 2026-04-28 17:47 | -22.19503 | -45.74580 | 33108 ft | 464 kts | 38° |
| 2026-04-28 17:47 | -22.17802 | -45.73113 | 33338 ft | 463 kts | 38° |
| 2026-04-28 17:48 | -22.14474 | -45.70242 | 33757 ft | 462 kts | 38° |
| 2026-04-28 17:48 | -22.11963 | -45.68074 | 34085 ft | 462 kts | 38° |
| 2026-04-28 17:48 | -22.09469 | -45.65923 | 34390 ft | 461 kts | 38° |
| 2026-04-28 17:48 | -22.06960 | -45.63759 | 34685 ft | 460 kts | 38° |
| 2026-04-28 17:49 | -22.04461 | -45.61605 | 34965 ft | 460 kts | 38° |
| 2026-04-28 17:49 | -22.01970 | -45.59459 | 35239 ft | 459 kts | 38° |
| 2026-04-28 17:49 | -21.99466 | -45.57303 | 35491 ft | 459 kts | 38° |
| 2026-04-28 17:49 | -21.96984 | -45.55167 | 35755 ft | 458 kts | 38° |
| 2026-04-28 17:50 | -21.94490 | -45.53021 | 36008 ft | 458 kts | 38° |
| 2026-04-28 17:50 | -21.92008 | -45.50887 | 36231 ft | 457 kts | 38° |
| 2026-04-28 17:50 | -21.89520 | -45.48748 | 36438 ft | 457 kts | 38° |
| 2026-04-28 17:50 | -21.87034 | -45.46612 | 36636 ft | 457 kts | 38° |
| 2026-04-28 17:51 | -21.84551 | -45.44480 | 36832 ft | 457 kts | 38° |
| 2026-04-28 17:51 | -21.82059 | -45.42341 | 36986 ft | 458 kts | 38° |
| 2026-04-28 17:51 | -21.79576 | -45.40211 | 37000 ft | 457 kts | 38° |
| 2026-04-28 17:52 | -21.74620 | -45.35962 | 37000 ft | 456 kts | 38° |
| 2026-04-28 17:52 | -21.67167 | -45.29580 | 37000 ft | 456 kts | 38° |
| 2026-04-28 17:53 | -21.62209 | -45.25339 | 37000 ft | 456 kts | 38° |
| 2026-04-28 17:53 | -21.57241 | -45.21093 | 37001 ft | 456 kts | 38° |
| 2026-04-28 17:54 | -21.52271 | -45.16849 | 37000 ft | 456 kts | 38° |
| 2026-04-28 17:54 | -21.47310 | -45.12617 | 37000 ft | 456 kts | 38° |
| 2026-04-28 17:55 | -21.42338 | -45.08379 | 37001 ft | 456 kts | 38° |
| 2026-04-28 17:55 | -21.37375 | -45.04154 | 37001 ft | 456 kts | 38° |
| 2026-04-28 17:56 | -21.32423 | -44.99941 | 37002 ft | 456 kts | 38° |
| 2026-04-28 17:56 | -21.27422 | -44.95690 | 37002 ft | 456 kts | 38° |
| 2026-04-28 17:57 | -21.22446 | -44.91463 | 37001 ft | 456 kts | 38° |
| 2026-04-28 17:57 | -21.17498 | -44.87265 | 37001 ft | 456 kts | 38° |
| 2026-04-28 17:58 | -21.12523 | -44.83047 | 37001 ft | 456 kts | 38° |
| 2026-04-28 17:58 | -21.07553 | -44.78837 | 37001 ft | 456 kts | 38° |
| 2026-04-28 17:59 | -21.02527 | -44.74677 | 37001 ft | 456 kts | 36° |
| 2026-04-28 17:59 | -20.97343 | -44.70776 | 37000 ft | 456 kts | 35° |
| 2026-04-28 18:00 | -20.92154 | -44.66864 | 37000 ft | 456 kts | 35° |
| 2026-04-28 18:00 | -20.86979 | -44.62924 | 37001 ft | 456 kts | 35° |
| 2026-04-28 18:01 | -20.81917 | -44.58844 | 36999 ft | 456 kts | 42° |
| 2026-04-28 18:01 | -20.77665 | -44.53840 | 36997 ft | 456 kts | 54° |
| 2026-04-28 18:02 | -20.74325 | -44.48101 | 36996 ft | 455 kts | 59° |
| 2026-04-28 18:02 | -20.71076 | -44.42280 | 36996 ft | 456 kts | 59° |
| 2026-04-28 18:03 | -20.67826 | -44.36484 | 36997 ft | 456 kts | 59° |
| 2026-04-28 18:03 | -20.64569 | -44.30679 | 36999 ft | 456 kts | 59° |
| 2026-04-28 18:04 | -20.61304 | -44.24865 | 37000 ft | 456 kts | 59° |
| 2026-04-28 18:04 | -20.58039 | -44.19056 | 37002 ft | 456 kts | 59° |
| 2026-04-28 18:05 | -20.55328 | -44.14235 | 37002 ft | 456 kts | 59° |
| 2026-04-28 18:05 | -20.51508 | -44.07452 | 37003 ft | 456 kts | 59° |
| 2026-04-28 18:06 | -20.48347 | -44.01582 | 37004 ft | 456 kts | 62° |
| 2026-04-28 18:06 | -20.45323 | -43.95620 | 37004 ft | 457 kts | 62° |
| 2026-04-28 18:07 | -20.42795 | -43.90686 | 37005 ft | 457 kts | 61° |
| 2026-04-28 18:07 | -20.39234 | -43.83796 | 37004 ft | 457 kts | 61° |
| 2026-04-28 18:08 | -20.36161 | -43.77868 | 37004 ft | 456 kts | 61° |
| 2026-04-28 18:08 | -20.33093 | -43.71953 | 37003 ft | 456 kts | 61° |
| 2026-04-28 18:09 | -20.30517 | -43.66992 | 37003 ft | 456 kts | 61° |
| 2026-04-28 18:09 | -20.27445 | -43.61079 | 37002 ft | 456 kts | 61° |
| 2026-04-28 18:10 | -20.24390 | -43.55206 | 37001 ft | 456 kts | 61° |
| 2026-04-28 18:10 | -20.21294 | -43.49262 | 37001 ft | 456 kts | 61° |
| 2026-04-28 18:11 | -20.18237 | -43.43398 | 37000 ft | 456 kts | 61° |
| 2026-04-28 18:11 | -20.15163 | -43.37506 | 36999 ft | 456 kts | 61° |
| 2026-04-28 18:12 | -20.12088 | -43.31620 | 36998 ft | 456 kts | 61° |
| 2026-04-28 18:12 | -20.09077 | -43.25675 | 36997 ft | 455 kts | 63° |
| 2026-04-28 18:13 | -20.06239 | -43.19664 | 36998 ft | 455 kts | 63° |
| 2026-04-28 18:13 | -20.03374 | -43.13644 | 36998 ft | 456 kts | 63° |
| 2026-04-28 18:14 | -20.00490 | -43.07642 | 36999 ft | 456 kts | 63° |
| 2026-04-28 18:14 | -19.97600 | -43.01642 | 37000 ft | 456 kts | 62° |
| 2026-04-28 18:15 | -19.94205 | -42.95974 | 36998 ft | 456 kts | 52° |
| 2026-04-28 18:15 | -19.90094 | -42.90846 | 36998 ft | 456 kts | 49° |
| 2026-04-28 18:16 | -19.85960 | -42.85743 | 36999 ft | 456 kts | 49° |
| 2026-04-28 18:16 | -19.81816 | -42.80626 | 37001 ft | 456 kts | 49° |
| 2026-04-28 18:17 | -19.77674 | -42.75519 | 37001 ft | 456 kts | 49° |
| 2026-04-28 18:17 | -19.73530 | -42.70415 | 37002 ft | 456 kts | 49° |
| 2026-04-28 18:18 | -19.69413 | -42.65350 | 37003 ft | 456 kts | 49° |
| 2026-04-28 18:18 | -19.65942 | -42.61090 | 37003 ft | 456 kts | 49° |
| 2026-04-28 18:19 | -19.61107 | -42.55168 | 37002 ft | 456 kts | 49° |
| 2026-04-28 18:19 | -19.56956 | -42.50086 | 37002 ft | 456 kts | 49° |
| 2026-04-28 18:20 | -19.52798 | -42.44992 | 37002 ft | 456 kts | 49° |
| 2026-04-28 18:20 | -19.48649 | -42.39905 | 37001 ft | 456 kts | 49° |
| 2026-04-28 18:21 | -19.44494 | -42.34815 | 37001 ft | 456 kts | 49° |
| 2026-04-28 18:21 | -19.40349 | -42.29742 | 37002 ft | 456 kts | 49° |
| 2026-04-28 18:22 | -19.36189 | -42.24657 | 37001 ft | 456 kts | 49° |
| 2026-04-28 18:22 | -19.32034 | -42.19581 | 37001 ft | 456 kts | 49° |
| 2026-04-28 18:23 | -19.29959 | -42.17042 | 35582 ft | 456 kts | 47° |
| 2026-04-28 18:23 | -19.27894 | -42.14511 | 35929 ft | 452 kts | 47° |
| 2026-04-28 18:23 | -19.25850 | -42.12015 | 36293 ft | 448 kts | 46° |
| 2026-04-28 18:23 | -19.23811 | -42.09529 | 36674 ft | 444 kts | 46° |
| 2026-04-28 18:24 | -19.21792 | -42.07070 | 36990 ft | 442 kts | 46° |
| 2026-04-28 18:24 | -19.20452 | -42.05438 | 36996 ft | 445 kts | 46° |
| 2026-04-28 18:24 | -19.15642 | -41.99586 | 36992 ft | 456 kts | 47° |
| 2026-04-28 18:25 | -19.11486 | -41.94537 | 36991 ft | 455 kts | 46° |
| 2026-04-28 18:26 | -19.05251 | -41.86986 | 36992 ft | 455 kts | 46° |
| 2026-04-28 18:26 | -19.01092 | -41.81944 | 36995 ft | 455 kts | 47° |
| 2026-04-28 18:27 | -18.96932 | -41.76899 | 36991 ft | 455 kts | 47° |
| 2026-04-28 18:27 | -18.92773 | -41.71862 | 36993 ft | 454 kts | 47° |
| 2026-04-28 18:28 | -18.88622 | -41.66839 | 36989 ft | 454 kts | 47° |
| 2026-04-28 18:28 | -18.84495 | -41.61850 | 36992 ft | 454 kts | 47° |
| 2026-04-28 18:29 | -18.80338 | -41.56827 | 36993 ft | 454 kts | 47° |
| 2026-04-28 18:29 | -18.76187 | -41.51816 | 36996 ft | 454 kts | 47° |
| 2026-04-28 18:30 | -18.72024 | -41.46794 | 37000 ft | 454 kts | 47° |
| 2026-04-28 18:30 | -18.67866 | -41.41783 | 37002 ft | 454 kts | 47° |
| 2026-04-28 18:31 | -18.63701 | -41.36768 | 37023 ft | 454 kts | 47° |
| 2026-04-28 18:31 | -18.59535 | -41.31757 | 37027 ft | 454 kts | 47° |
| 2026-04-28 18:32 | -18.55369 | -41.26747 | 37012 ft | 454 kts | 47° |
| 2026-04-28 18:32 | -18.51212 | -41.21753 | 37006 ft | 454 kts | 47° |
| 2026-04-28 18:33 | -18.47047 | -41.16755 | 37011 ft | 454 kts | 47° |
| 2026-04-28 18:33 | -18.42885 | -41.11764 | 37027 ft | 454 kts | 47° |
| 2026-04-28 18:34 | -18.38714 | -41.06765 | 37024 ft | 453 kts | 47° |
| 2026-04-28 18:34 | -18.34555 | -41.01784 | 37005 ft | 454 kts | 47° |
| 2026-04-28 18:35 | -18.30383 | -40.96792 | 37004 ft | 453 kts | 47° |
| 2026-04-28 18:35 | -18.26221 | -40.91816 | 37005 ft | 453 kts | 47° |
| 2026-04-28 18:36 | -18.22059 | -40.86844 | 37023 ft | 453 kts | 47° |
| 2026-04-28 18:36 | -18.17883 | -40.81859 | 37026 ft | 453 kts | 47° |
| 2026-04-28 18:37 | -18.13715 | -40.76886 | 37019 ft | 454 kts | 47° |
| 2026-04-28 18:37 | -18.09541 | -40.71910 | 37009 ft | 454 kts | 47° |
| 2026-04-28 18:38 | -18.05367 | -40.66940 | 37009 ft | 454 kts | 47° |
| 2026-04-28 18:38 | -18.01190 | -40.61968 | 37006 ft | 454 kts | 47° |
| 2026-04-28 18:39 | -17.97006 | -40.56994 | 37015 ft | 454 kts | 47° |
| 2026-04-28 18:39 | -17.92832 | -40.52034 | 37018 ft | 454 kts | 47° |
| 2026-04-28 18:40 | -17.88641 | -40.47058 | 37016 ft | 454 kts | 47° |
| 2026-04-28 18:40 | -17.84467 | -40.42105 | 37011 ft | 454 kts | 47° |
| 2026-04-28 18:41 | -17.80278 | -40.37140 | 36648 ft | 453 kts | 47° |
| 2026-04-28 18:41 | -17.78188 | -40.34665 | 35930 ft | 456 kts | 47° |
| 2026-04-28 18:41 | -17.76070 | -40.32158 | 34993 ft | 463 kts | 47° |
| 2026-04-28 18:41 | -17.73916 | -40.29614 | 33949 ft | 473 kts | 47° |
| 2026-04-28 18:42 | -17.71709 | -40.27007 | 32914 ft | 478 kts | 47° |
| 2026-04-28 18:42 | -17.69502 | -40.24400 | 32030 ft | 478 kts | 47° |
| 2026-04-28 18:42 | -17.67291 | -40.21789 | 31169 ft | 479 kts | 47° |
| 2026-04-28 18:42 | -17.65081 | -40.19180 | 30373 ft | 478 kts | 47° |
| 2026-04-28 18:43 | -17.62884 | -40.16587 | 29784 ft | 472 kts | 47° |
| 2026-04-28 18:43 | -17.60716 | -40.14030 | 29177 ft | 466 kts | 47° |
| 2026-04-28 18:43 | -17.58576 | -40.11506 | 28502 ft | 462 kts | 47° |
| 2026-04-28 18:43 | -17.56457 | -40.09008 | 27955 ft | 455 kts | 47° |
| 2026-04-28 18:44 | -17.54359 | -40.06536 | 27366 ft | 450 kts | 47° |
| 2026-04-28 18:44 | -17.50240 | -40.01685 | 26187 ft | 442 kts | 47° |
| 2026-04-28 18:44 | -17.48213 | -39.99299 | 25620 ft | 438 kts | 47° |
| 2026-04-28 18:45 | -17.46194 | -39.96924 | 25018 ft | 435 kts | 47° |
| 2026-04-28 18:45 | -17.44061 | -39.94711 | 24430 ft | 432 kts | 39° |
| 2026-04-28 18:45 | -17.41689 | -39.92819 | 23846 ft | 428 kts | 32° |
| 2026-04-28 18:45 | -17.39124 | -39.91261 | 23192 ft | 425 kts | 26° |
| 2026-04-28 18:46 | -17.36510 | -39.89869 | 22675 ft | 419 kts | 26° |
| 2026-04-28 18:46 | -17.33935 | -39.88480 | 22105 ft | 414 kts | 27° |
| 2026-04-28 18:46 | -17.31390 | -39.87102 | 21541 ft | 410 kts | 27° |
| 2026-04-28 18:46 | -17.28867 | -39.85734 | 20983 ft | 407 kts | 27° |
| 2026-04-28 18:47 | -17.26395 | -39.84395 | 20407 ft | 404 kts | 27° |
| 2026-04-28 18:47 | -17.23901 | -39.83046 | 19806 ft | 402 kts | 27° |
| 2026-04-28 18:47 | -17.21433 | -39.81711 | 19274 ft | 398 kts | 27° |
| 2026-04-28 18:47 | -17.18982 | -39.80387 | 18725 ft | 396 kts | 27° |
| 2026-04-28 18:48 | -17.16538 | -39.79067 | 18160 ft | 394 kts | 27° |
| 2026-04-28 18:48 | -17.14120 | -39.77761 | 17579 ft | 390 kts | 27° |
| 2026-04-28 18:48 | -17.11714 | -39.76462 | 17038 ft | 386 kts | 27° |
| 2026-04-28 18:48 | -17.09347 | -39.75184 | 16491 ft | 383 kts | 28° |
| 2026-04-28 18:49 | -17.06979 | -39.73906 | 15925 ft | 380 kts | 28° |
| 2026-04-28 18:49 | -17.06185 | -39.73477 | 15767 ft | 379 kts | 28° |
| 2026-04-28 18:49 | -17.02322 | -39.71376 | 14899 ft | 373 kts | 30° |
| 2026-04-28 18:49 | -17.00148 | -39.70004 | 14747 ft | 359 kts | 32° |
| 2026-04-28 18:50 | -16.98048 | -39.68681 | 14626 ft | 345 kts | 32° |
| 2026-04-28 18:50 | -16.96038 | -39.67420 | 14497 ft | 329 kts | 32° |
| 2026-04-28 18:50 | -16.94115 | -39.66215 | 14202 ft | 316 kts | 32° |
| 2026-04-28 18:50 | -16.92247 | -39.65043 | 13688 ft | 312 kts | 32° |
| 2026-04-28 18:51 | -16.90384 | -39.63872 | 13260 ft | 311 kts | 32° |
| 2026-04-28 18:51 | -16.88550 | -39.62719 | 12790 ft | 308 kts | 31° |
| 2026-04-28 18:51 | -16.86716 | -39.61568 | 12388 ft | 306 kts | 31° |
| 2026-04-28 18:51 | -16.84899 | -39.60427 | 12019 ft | 303 kts | 31° |
| 2026-04-28 18:52 | -16.83095 | -39.59294 | 11638 ft | 302 kts | 31° |
| 2026-04-28 18:52 | -16.81297 | -39.58166 | 11278 ft | 300 kts | 31° |
| 2026-04-28 18:52 | -16.79524 | -39.57054 | 10919 ft | 298 kts | 31° |
| 2026-04-28 18:52 | -16.77749 | -39.55940 | 10559 ft | 296 kts | 31° |
| 2026-04-28 18:53 | -16.75995 | -39.54839 | 10203 ft | 294 kts | 31° |
| 2026-04-28 18:53 | -16.74247 | -39.53741 | 9854 ft | 292 kts | 31° |
| 2026-04-28 18:53 | -16.72599 | -39.52502 | 9447 ft | 290 kts | 37° |
| 2026-04-28 18:53 | -16.71001 | -39.51224 | 9052 ft | 289 kts | 37° |
| 2026-04-28 18:54 | -16.69409 | -39.49959 | 8658 ft | 288 kts | 36° |
| 2026-04-28 18:54 | -16.67821 | -39.48702 | 8269 ft | 287 kts | 36° |
| 2026-04-28 18:54 | -16.66233 | -39.47446 | 7887 ft | 286 kts | 36° |
| 2026-04-28 18:54 | -16.65183 | -39.46616 | 7644 ft | 285 kts | 36° |
| 2026-04-28 18:55 | -16.63606 | -39.45371 | 7266 ft | 284 kts | 36° |
| 2026-04-28 18:55 | -16.62042 | -39.44132 | 6898 ft | 283 kts | 36° |
| 2026-04-28 18:55 | -16.60472 | -39.42892 | 6546 ft | 282 kts | 36° |
| 2026-04-28 18:55 | -16.58408 | -39.41262 | 6024 ft | 281 kts | 36° |
| 2026-04-28 18:56 | -16.56856 | -39.40038 | 5648 ft | 280 kts | 36° |
| 2026-04-28 18:56 | -16.55806 | -39.39210 | 5415 ft | 278 kts | 36° |
| 2026-04-28 18:56 | -16.54268 | -39.37994 | 5059 ft | 277 kts | 37° |
| 2026-04-28 18:56 | -16.52737 | -39.36783 | 4704 ft | 276 kts | 37° |
| 2026-04-28 18:57 | -16.51416 | -39.35341 | 4333 ft | 275 kts | 57° |
| 2026-04-28 18:57 | -16.50674 | -39.33546 | 3970 ft | 274 kts | 74° |
| 2026-04-28 18:57 | -16.50172 | -39.31612 | 3605 ft | 273 kts | 74° |
| 2026-04-28 18:57 | -16.49671 | -39.29710 | 3266 ft | 271 kts | 74° |
| 2026-04-28 18:58 | -16.49176 | -39.27852 | 2952 ft | 268 kts | 74° |
| 2026-04-28 18:58 | -16.48672 | -39.25972 | 2680 ft | 263 kts | 73° |
| 2026-04-28 18:58 | -16.48196 | -39.24202 | 2584 ft | 251 kts | 74° |
| 2026-04-28 18:58 | -16.47734 | -39.22485 | 2492 ft | 241 kts | 74° |
| 2026-04-28 18:59 | -16.47292 | -39.20847 | 2415 ft | 229 kts | 74° |
| 2026-04-28 18:59 | -16.46866 | -39.19272 | 2168 ft | 224 kts | 73° |
| 2026-04-28 18:59 | -16.46453 | -39.17736 | 2003 ft | 214 kts | 73° |
| 2026-04-28 18:59 | -16.46064 | -39.16289 | 1859 ft | 204 kts | 73° |
| 2026-04-28 19:00 | -16.45683 | -39.14881 | 1604 ft | 201 kts | 74° |
| 2026-04-28 19:00 | -16.45302 | -39.13474 | 1340 ft | 202 kts | 73° |
| 2026-04-28 19:00 | -16.44922 | -39.12064 | 1084 ft | 201 kts | 74° |
| 2026-04-28 19:00 | -16.44544 | -39.10655 | 951 ft | 213 kts | 74° |
| 2026-04-28 19:01 | -16.44135 | -39.09150 | 1949 ft | 222 kts | 74° |
| 2026-04-28 19:01 | -16.43696 | -39.07526 | 2852 ft | 238 kts | 73° |
| 2026-04-28 19:01 | -16.43234 | -39.05812 | 3726 ft | 259 kts | 73° |
| 2026-04-28 19:01 | -16.42723 | -39.03910 | 3890 ft | 282 kts | 73° |
| 2026-04-28 19:02 | -16.41919 | -39.02035 | 3865 ft | 286 kts | 52° |
| 2026-04-28 19:02 | -16.40439 | -39.00708 | 3819 ft | 279 kts | 26° |
| 2026-04-28 19:02 | -16.38615 | -39.00223 | 3697 ft | 269 kts | 0° |
| 2026-04-28 19:02 | -16.36827 | -39.00652 | 3468 ft | 264 kts | 332° |
| 2026-04-28 19:03 | -16.35493 | -39.01890 | 3372 ft | 256 kts | 303° |
| 2026-04-28 19:03 | -16.34923 | -39.03603 | 3271 ft | 248 kts | 274° |
| 2026-04-28 19:03 | -16.35252 | -39.05319 | 3201 ft | 242 kts | 242° |
| 2026-04-28 19:03 | -16.36199 | -39.06734 | 3076 ft | 235 kts | 233° |
| 2026-04-28 19:04 | -16.37087 | -39.08131 | 3007 ft | 228 kts | 242° |
| 2026-04-28 19:04 | -16.37631 | -39.09661 | 3002 ft | 230 kts | 261° |
| 2026-04-28 19:04 | -16.37860 | -39.11303 | 2998 ft | 233 kts | 263° |
| 2026-04-28 19:04 | -16.38061 | -39.13012 | 3005 ft | 239 kts | 263° |
| 2026-04-28 19:05 | -16.38261 | -39.14717 | 2997 ft | 239 kts | 263° |
| 2026-04-28 19:05 | -16.38472 | -39.16455 | 3001 ft | 241 kts | 263° |
| 2026-04-28 19:05 | -16.38689 | -39.18173 | 3004 ft | 238 kts | 263° |
| 2026-04-28 19:05 | -16.38904 | -39.19879 | 3006 ft | 243 kts | 262° |
| 2026-04-28 19:06 | -16.39126 | -39.21631 | 3007 ft | 239 kts | 263° |
| 2026-04-28 19:06 | -16.39270 | -39.22777 | 2998 ft | 240 kts | 262° |
| 2026-04-28 19:06 | -16.39559 | -39.25027 | 3001 ft | 235 kts | 262° |
| 2026-04-28 19:06 | -16.39789 | -39.26727 | 2988 ft | 237 kts | 257° |
| 2026-04-28 19:07 | -16.40494 | -39.28233 | 2927 ft | 229 kts | 225° |
| 2026-04-28 19:07 | -16.41765 | -39.29108 | 2846 ft | 214 kts | 194° |
| 2026-04-28 19:07 | -16.43191 | -39.29216 | 2723 ft | 201 kts | 165° |
| 2026-04-28 19:07 | -16.44431 | -39.28662 | 2623 ft | 193 kts | 139° |
| 2026-04-28 19:08 | -16.45466 | -39.27845 | 2619 ft | 181 kts | 140° |
| 2026-04-28 19:08 | -16.46456 | -39.27111 | 2527 ft | 168 kts | 141° |
| 2026-04-28 19:08 | -16.47330 | -39.26372 | 2452 ft | 155 kts | 127° |
| 2026-04-28 19:08 | -16.47871 | -39.25453 | 2327 ft | 148 kts | 108° |
| 2026-04-28 19:09 | -16.48078 | -39.24451 | 2174 ft | 134 kts | 92° |
| 2026-04-28 19:09 | -16.48005 | -39.23526 | 2004 ft | 125 kts | 78° |
| 2026-04-28 19:09 | -16.47750 | -39.22632 | 1878 ft | 133 kts | 73° |
| 2026-04-28 19:09 | -16.47496 | -39.21708 | 1702 ft | 132 kts | 75° |
| 2026-04-28 19:10 | -16.47254 | -39.20797 | 1570 ft | 130 kts | 76° |
| 2026-04-28 19:10 | -16.47018 | -39.19896 | 1407 ft | 131 kts | 75° |
| 2026-04-28 19:10 | -16.46779 | -39.18986 | 1336 ft | 130 kts | 75° |
| 2026-04-28 19:10 | -16.46540 | -39.18079 | 1333 ft | 129 kts | 75° |
| 2026-04-28 19:11 | -16.46300 | -39.17191 | 1328 ft | 128 kts | 75° |
| 2026-04-28 19:11 | -16.46063 | -39.16307 | 1324 ft | 128 kts | 74° |
| 2026-04-28 19:11 | -16.45824 | -39.15414 | 1320 ft | 131 kts | 75° |
| 2026-04-28 19:11 | -16.45574 | -39.14502 | 1361 ft | 129 kts | 75° |
| 2026-04-28 19:12 | -16.45334 | -39.13618 | 1180 ft | 127 kts | 75° |
| 2026-04-28 19:12 | -16.45094 | -39.12716 | 1026 ft | 130 kts | 75° |
| 2026-04-28 19:12 | -16.44855 | -39.11821 | 864 ft | 128 kts | 73° |
| 2026-04-28 19:12 | -16.44626 | -39.10914 | 666 ft | 131 kts | 73° |
| 2026-04-28 19:13 | -16.44370 | -39.09982 | 483 ft | 132 kts | 74° |
| 2026-04-28 19:13 | -16.44122 | -39.09069 | 290 ft | 131 kts | 72° |
| 2026-04-28 19:13 | -16.43872 | -39.08174 | 221 ft | 139 kts | 72° |
| 2026-04-28 19:13 | -16.43566 | -39.07124 | 667 ft | 156 kts | 72° |
| 2026-04-28 19:14 | -16.43218 | -39.06020 | 1385 ft | 164 kts | 71° |
| 2026-04-28 19:14 | -16.42844 | -39.04889 | 2247 ft | 169 kts | 72° |
| 2026-04-28 19:14 | -16.42490 | -39.03670 | 2807 ft | 192 kts | 74° |
| 2026-04-28 19:14 | -16.42086 | -39.02210 | 2957 ft | 224 kts | 65° |
| 2026-04-28 19:15 | -16.41155 | -39.00923 | 2883 ft | 224 kts | 31° |
| 2026-04-28 19:15 | -16.39707 | -39.00490 | 2937 ft | 218 kts | 358° |
| 2026-04-28 19:15 | -16.38485 | -39.00827 | 2899 ft | 227 kts | 326° |
| 2026-04-28 19:15 | -16.37720 | -39.01578 | 2891 ft | 231 kts | 305° |
| 2026-04-28 19:16 | -16.37218 | -39.03713 | 2987 ft | 234 kts | 262° |
| 2026-04-28 19:16 | -16.37843 | -39.05270 | 2997 ft | 237 kts | 234° |
| 2026-04-28 19:16 | -16.38798 | -39.06642 | 2996 ft | 232 kts | 237° |
| 2026-04-28 19:16 | -16.39541 | -39.08138 | 2997 ft | 232 kts | 250° |
| 2026-04-28 19:17 | -16.39968 | -39.09754 | 3016 ft | 232 kts | 261° |
| 2026-04-28 19:17 | -16.40160 | -39.11398 | 2999 ft | 232 kts | 267° |
| 2026-04-28 19:17 | -16.40230 | -39.13075 | 2996 ft | 231 kts | 270° |
| 2026-04-28 19:17 | -16.40249 | -39.14781 | 2996 ft | 233 kts | 271° |
| 2026-04-28 19:18 | -16.40255 | -39.16447 | 2988 ft | 233 kts | 270° |
| 2026-04-28 19:18 | -16.40261 | -39.18131 | 2998 ft | 233 kts | 270° |
| 2026-04-28 19:18 | -16.40271 | -39.19816 | 3006 ft | 232 kts | 270° |
| 2026-04-28 19:18 | -16.40286 | -39.21489 | 2999 ft | 232 kts | 270° |
| 2026-04-28 19:19 | -16.40305 | -39.23166 | 3005 ft | 230 kts | 270° |
| 2026-04-28 19:19 | -16.40324 | -39.24832 | 3003 ft | 231 kts | 270° |
| 2026-04-28 19:19 | -16.40342 | -39.26519 | 2998 ft | 233 kts | 269° |
| 2026-04-28 19:19 | -16.40725 | -39.28147 | 2932 ft | 234 kts | 239° |
| 2026-04-28 19:20 | -16.41846 | -39.29319 | 2838 ft | 228 kts | 206° |
| 2026-04-28 19:20 | -16.43323 | -39.29660 | 2736 ft | 214 kts | 172° |
| 2026-04-28 19:20 | -16.44640 | -39.29115 | 2637 ft | 200 kts | 140° |
| 2026-04-28 19:20 | -16.45590 | -39.28112 | 2568 ft | 188 kts | 130° |
| 2026-04-28 19:21 | -16.46496 | -39.27200 | 2473 ft | 175 kts | 137° |
| 2026-04-28 19:21 | -16.47351 | -39.26375 | 2387 ft | 161 kts | 126° |
| 2026-04-28 19:21 | -16.47885 | -39.25410 | 2281 ft | 147 kts | 107° |
| 2026-04-28 19:21 | -16.48080 | -39.24413 | 2044 ft | 134 kts | 90° |
| 2026-04-28 19:22 | -16.47995 | -39.23508 | 1961 ft | 122 kts | 76° |
| 2026-04-28 19:22 | -16.47832 | -39.22944 | 2015 ft | 127 kts | 72° |
| 2026-04-28 19:22 | -16.47488 | -39.21705 | 1997 ft | 133 kts | 75° |
| 2026-04-28 19:22 | -16.47253 | -39.20797 | 1999 ft | 128 kts | 74° |
| 2026-04-28 19:23 | -16.47016 | -39.19885 | 2008 ft | 134 kts | 75° |
| 2026-04-28 19:23 | -16.46772 | -39.18957 | 1999 ft | 130 kts | 74° |
| 2026-04-28 19:23 | -16.46527 | -39.18036 | 2003 ft | 131 kts | 73° |
| 2026-04-28 19:23 | -16.46290 | -39.17154 | 1998 ft | 126 kts | 74° |
| 2026-04-28 19:24 | -16.46045 | -39.16246 | 1997 ft | 135 kts | 73° |
| 2026-04-28 19:24 | -16.45791 | -39.15312 | 1900 ft | 132 kts | 74° |
| 2026-04-28 19:24 | -16.45544 | -39.14397 | 1745 ft | 130 kts | 73° |
| 2026-04-28 19:24 | -16.45306 | -39.13511 | 1540 ft | 126 kts | 73° |
| 2026-04-28 19:25 | -16.45070 | -39.12623 | 1330 ft | 129 kts | 73° |
| 2026-04-28 19:25 | -16.44839 | -39.11725 | 1043 ft | 128 kts | 73° |
| 2026-04-28 19:25 | -16.44601 | -39.10827 | 737 ft | 130 kts | 73° |
| 2026-04-28 19:25 | -16.44327 | -39.09916 | 508 ft | 131 kts | 76° |
| 2026-04-28 19:26 | -16.44096 | -39.09001 | 238 ft | 128 kts | 74° |
| 2026-04-28 19:26 | -16.43867 | -39.08168 | 170 ft | 101 kts | 73° |
| 2026-04-28 19:26 | -16.43759 | -39.07760 | 169 ft | 35 kts | 75° |
| 2026-04-28 19:26 | -16.43702 | -39.07543 | 168 ft | 25 kts | 75° |
| 2026-04-28 19:27 | -16.43656 | -39.07371 | 166 ft | 22 kts | 73° |
| 2026-04-28 19:27 | -16.43654 | -39.07248 | 164 ft | 11 kts | 110° |
| 2026-04-28 19:27 | -16.43632 | -39.07198 | 163 ft | 9 kts | 360° |
| 2026-04-28 19:27 | -16.43624 | -39.07248 | 164 ft | 9 kts | 255° |
| 2026-04-28 19:28 | -16.43642 | -39.07317 | 165 ft | 11 kts | 255° |
| 2026-04-28 19:28 | -16.43664 | -39.07401 | 167 ft | 13 kts | 255° |
| 2026-04-28 19:28 | -16.43689 | -39.07503 | 168 ft | 16 kts | 255° |
| 2026-04-28 19:28 | -16.43725 | -39.07615 | 168 ft | 18 kts | 252° |
| 2026-04-28 19:29 | -16.43738 | -39.07657 | 168 ft | 0 kts | 252° |
| 2026-04-28 19:29 | -16.43746 | -39.07684 | 169 ft | 7 kts | 253° |
| 2026-04-28 19:29 | -16.43759 | -39.07749 | 169 ft | 11 kts | 257° |
| 2026-04-28 19:30 | -16.43780 | -39.07842 | 168 ft | 15 kts | 257° |
| 2026-04-28 19:30 | -16.43815 | -39.07960 | 168 ft | 19 kts | 253° |
| 2026-04-28 19:30 | -16.43851 | -39.08095 | 169 ft | 19 kts | 254° |
| 2026-04-28 19:30 | -16.43911 | -39.08143 | 170 ft | 9 kts | 162° |
| 2026-04-28 19:31 | -16.43949 | -39.08130 | 170 ft | 3 kts | 165° |
| 2026-04-28 19:31 | -16.43966 | -39.08125 | 170 ft | 2 kts | 165° |
| 2026-04-28 19:31 | -16.43983 | -39.08121 | 170 ft | 3 kts | 165° |
| 2026-04-28 19:31 | -16.44008 | -39.08116 | 170 ft | 3 kts | 177° |
| 2026-04-28 19:32 | -16.44020 | -39.08129 | 170 ft | 2 kts | 246° |
| 2026-04-28 19:32 | -16.44023 | -39.08134 | 170 ft | 0 kts | 237° |
| 2026-04-28 19:32 | -16.44030 | -39.08138 | 170 ft | 1 kts | 207° |
| 2026-04-28 19:32 | -16.44039 | -39.08137 | 170 ft | 2 kts | 174° |
| 2026-04-28 19:33 | -16.44061 | -39.08134 | 170 ft | 4 kts | 172° |
| 2026-04-28 19:33 | -16.44067 | -39.08133 | 170 ft | 1 kts | 172° |
| 2026-04-28 19:33 | -16.44072 | -39.08133 | 170 ft | 0 kts | 174° |